sensor_id;sensor_type;location;lat;lon;timestamp;temperature;humidity
27224;DHT22;14965;50.660;13.226;2022-09-09T00:01:03;12.50;99.90
27224;DHT22;14965;50.660;13.226;2022-09-09T00:03:40;12.50;99.90
27224;DHT22;14965;50.660;13.226;2022-09-09T00:06:16;12.40;99.90
27224;DHT22;14965;50.660;13.226;2022-09-09T00:08:55;12.40;99.90
27224;DHT22;14965;50.660;13.226;2022-09-09T00:11:31;12.40;99.90
27224;DHT22;14965;50.660;13.226;2022-09-09T00:14:12;12.30;99.90
27224;DHT22;14965;50.660;13.226;2022-09-09T00:16:47;12.30;99.90
27224;DHT22;14965;50.660;13.226;2022-09-09T00:19:23;12.30;99.90
27224;DHT22;14965;50.660;13.226;2022-09-09T00:22:14;12.30;99.90
27224;DHT22;14965;50.660;13.226;2022-09-09T00:24:46;12.20;99.90
27224;DHT22;14965;50.660;13.226;2022-09-09T00:27:21;12.20;99.90
27224;DHT22;14965;50.660;13.226;2022-09-09T00:29:54;12.20;99.90
27224;DHT22;14965;50.660;13.226;2022-09-09T00:32:28;12.20;99.90
27224;DHT22;14965;50.660;13.226;2022-09-09T00:34:59;12.10;99.90
27224;DHT22;14965;50.660;13.226;2022-09-09T00:37:29;12.10;99.90
27224;DHT22;14965;50.660;13.226;2022-09-09T00:40:02;12.00;99.90
27224;DHT22;14965;50.660;13.226;2022-09-09T00:42:42;11.90;99.90
27224;DHT22;14965;50.660;13.226;2022-09-09T00:45:25;12.00;99.90
27224;DHT22;14965;50.660;13.226;2022-09-09T00:48:14;12.00;99.90
27224;DHT22;14965;50.660;13.226;2022-09-09T00:50:46;11.90;99.90
27224;DHT22;14965;50.660;13.226;2022-09-09T00:53:33;11.90;99.90
27224;DHT22;14965;50.660;13.226;2022-09-09T00:56:12;11.80;99.90
27224;DHT22;14965;50.660;13.226;2022-09-09T00:58:42;11.80;99.90
27224;DHT22;14965;50.660;13.226;2022-09-09T01:01:10;11.80;99.90
27224;DHT22;14965;50.660;13.226;2022-09-09T01:03:42;11.80;99.90
27224;DHT22;14965;50.660;13.226;2022-09-09T01:06:25;11.80;99.90
27224;DHT22;14965;50.660;13.226;2022-09-09T01:09:12;11.80;99.90
27224;DHT22;14965;50.660;13.226;2022-09-09T01:11:52;11.70;99.90
27224;DHT22;14965;50.660;13.226;2022-09-09T01:14:32;11.70;99.90
27224;DHT22;14965;50.660;13.226;2022-09-09T01:17:11;11.80;99.90
27224;DHT22;14965;50.660;13.226;2022-09-09T01:19:50;11.70;99.90
27224;DHT22;14965;50.660;13.226;2022-09-09T01:22:30;11.70;99.90
27224;DHT22;14965;50.660;13.226;2022-09-09T01:25:21;11.70;99.90
27224;DHT22;14965;50.660;13.226;2022-09-09T01:27:56;11.60;99.90
27224;DHT22;14965;50.660;13.226;2022-09-09T01:30:26;11.60;99.90
27224;DHT22;14965;50.660;13.226;2022-09-09T01:32:55;11.60;99.90
27224;DHT22;14965;50.660;13.226;2022-09-09T01:35:31;11.60;99.90
27224;DHT22;14965;50.660;13.226;2022-09-09T01:38:03;11.60;99.90
27224;DHT22;14965;50.660;13.226;2022-09-09T01:40:29;11.60;99.90
27224;DHT22;14965;50.660;13.226;2022-09-09T01:42:57;11.60;99.90
27224;DHT22;14965;50.660;13.226;2022-09-09T01:45:24;11.50;99.90
27224;DHT22;14965;50.660;13.226;2022-09-09T01:47:50;11.50;99.90
27224;DHT22;14965;50.660;13.226;2022-09-09T01:50:18;11.50;99.90
27224;DHT22;14965;50.660;13.226;2022-09-09T01:52:47;11.50;99.90
27224;DHT22;14965;50.660;13.226;2022-09-09T01:55:16;11.40;99.90
27224;DHT22;14965;50.660;13.226;2022-09-09T01:57:50;11.40;99.90
27224;DHT22;14965;50.660;13.226;2022-09-09T02:00:24;11.50;99.90
27224;DHT22;14965;50.660;13.226;2022-09-09T02:03:00;11.50;99.90
27224;DHT22;14965;50.660;13.226;2022-09-09T02:05:36;11.50;99.90
27224;DHT22;14965;50.660;13.226;2022-09-09T02:08:06;11.50;99.90
27224;DHT22;14965;50.660;13.226;2022-09-09T02:10:40;11.50;99.90
27224;DHT22;14965;50.660;13.226;2022-09-09T02:13:13;11.50;99.90
27224;DHT22;14965;50.660;13.226;2022-09-09T02:15:45;11.50;99.90
27224;DHT22;14965;50.660;13.226;2022-09-09T02:18:22;11.50;99.90
27224;DHT22;14965;50.660;13.226;2022-09-09T02:20:53;11.40;99.90
27224;DHT22;14965;50.660;13.226;2022-09-09T02:23:19;11.40;99.90
27224;DHT22;14965;50.660;13.226;2022-09-09T02:25:46;11.40;99.90
27224;DHT22;14965;50.660;13.226;2022-09-09T02:28:15;11.40;99.90
27224;DHT22;14965;50.660;13.226;2022-09-09T02:30:46;11.40;99.90
27224;DHT22;14965;50.660;13.226;2022-09-09T02:33:15;11.40;99.90
27224;DHT22;14965;50.660;13.226;2022-09-09T02:35:42;11.40;99.90
27224;DHT22;14965;50.660;13.226;2022-09-09T02:38:12;11.30;99.90
27224;DHT22;14965;50.660;13.226;2022-09-09T02:40:40;11.40;99.90
27224;DHT22;14965;50.660;13.226;2022-09-09T02:43:06;11.30;99.90
27224;DHT22;14965;50.660;13.226;2022-09-09T02:45:39;11.30;99.90
27224;DHT22;14965;50.660;13.226;2022-09-09T02:48:14;11.30;99.90
27224;DHT22;14965;50.660;13.226;2022-09-09T02:50:53;11.30;99.90
27224;DHT22;14965;50.660;13.226;2022-09-09T02:53:27;11.30;99.90
27224;DHT22;14965;50.660;13.226;2022-09-09T02:56:04;11.20;99.90
27224;DHT22;14965;50.660;13.226;2022-09-09T02:58:34;11.20;99.90
27224;DHT22;14965;50.660;13.226;2022-09-09T03:01:02;11.20;99.90
27224;DHT22;14965;50.660;13.226;2022-09-09T03:03:29;11.20;99.90
27224;DHT22;14965;50.660;13.226;2022-09-09T03:05:55;11.20;99.90
27224;DHT22;14965;50.660;13.226;2022-09-09T03:08:21;11.20;99.90
27224;DHT22;14965;50.660;13.226;2022-09-09T03:10:47;11.20;99.90
27224;DHT22;14965;50.660;13.226;2022-09-09T03:13:13;11.20;99.90
27224;DHT22;14965;50.660;13.226;2022-09-09T03:15:39;11.20;99.90
27224;DHT22;14965;50.660;13.226;2022-09-09T03:18:06;11.20;99.90
27224;DHT22;14965;50.660;13.226;2022-09-09T03:20:33;11.20;99.90
27224;DHT22;14965;50.660;13.226;2022-09-09T03:23:00;11.20;99.90
27224;DHT22;14965;50.660;13.226;2022-09-09T03:25:26;11.20;99.90
27224;DHT22;14965;50.660;13.226;2022-09-09T03:27:53;11.20;99.90
27224;DHT22;14965;50.660;13.226;2022-09-09T03:30:20;11.20;99.90
27224;DHT22;14965;50.660;13.226;2022-09-09T03:32:46;11.20;99.90
27224;DHT22;14965;50.660;13.226;2022-09-09T03:35:12;11.20;99.90
27224;DHT22;14965;50.660;13.226;2022-09-09T03:37:39;11.20;99.90
27224;DHT22;14965;50.660;13.226;2022-09-09T03:40:06;11.30;99.90
27224;DHT22;14965;50.660;13.226;2022-09-09T03:42:33;11.30;99.90
27224;DHT22;14965;50.660;13.226;2022-09-09T03:44:59;11.30;99.90
27224;DHT22;14965;50.660;13.226;2022-09-09T03:47:24;11.40;99.90
27224;DHT22;14965;50.660;13.226;2022-09-09T03:49:50;11.30;99.90
27224;DHT22;14965;50.660;13.226;2022-09-09T03:52:16;11.40;99.90
27224;DHT22;14965;50.660;13.226;2022-09-09T03:54:43;11.40;99.90
27224;DHT22;14965;50.660;13.226;2022-09-09T03:57:09;11.40;99.90
27224;DHT22;14965;50.660;13.226;2022-09-09T03:59:35;11.40;99.90
27224;DHT22;14965;50.660;13.226;2022-09-09T04:02:02;11.40;99.90
27224;DHT22;14965;50.660;13.226;2022-09-09T04:04:28;11.40;99.90
27224;DHT22;14965;50.660;13.226;2022-09-09T04:06:54;11.40;99.90
27224;DHT22;14965;50.660;13.226;2022-09-09T04:09:20;11.40;99.90
27224;DHT22;14965;50.660;13.226;2022-09-09T04:11:47;11.50;99.90
27224;DHT22;14965;50.660;13.226;2022-09-09T04:14:13;11.50;99.90
27224;DHT22;14965;50.660;13.226;2022-09-09T04:16:39;11.50;99.90
27224;DHT22;14965;50.660;13.226;2022-09-09T04:19:05;11.50;99.90
27224;DHT22;14965;50.660;13.226;2022-09-09T04:21:31;11.50;99.90
27224;DHT22;14965;50.660;13.226;2022-09-09T04:23:56;11.50;99.90
27224;DHT22;14965;50.660;13.226;2022-09-09T04:26:22;11.50;99.90
27224;DHT22;14965;50.660;13.226;2022-09-09T04:28:49;11.60;99.90
27224;DHT22;14965;50.660;13.226;2022-09-09T04:31:17;11.60;99.90
27224;DHT22;14965;50.660;13.226;2022-09-09T04:33:44;11.60;99.90
27224;DHT22;14965;50.660;13.226;2022-09-09T04:36:10;11.60;99.90
27224;DHT22;14965;50.660;13.226;2022-09-09T04:38:36;11.60;99.90
27224;DHT22;14965;50.660;13.226;2022-09-09T04:41:02;11.60;99.90
27224;DHT22;14965;50.660;13.226;2022-09-09T04:43:28;11.60;99.90
27224;DHT22;14965;50.660;13.226;2022-09-09T04:45:55;11.70;99.90
27224;DHT22;14965;50.660;13.226;2022-09-09T04:48:21;11.70;99.90
27224;DHT22;14965;50.660;13.226;2022-09-09T04:50:54;11.80;99.90
27224;DHT22;14965;50.660;13.226;2022-09-09T04:53:22;11.80;99.90
27224;DHT22;14965;50.660;13.226;2022-09-09T04:55:48;11.80;99.90
27224;DHT22;14965;50.660;13.226;2022-09-09T04:58:14;11.90;99.90
27224;DHT22;14965;50.660;13.226;2022-09-09T05:00:40;12.00;99.90
27224;DHT22;14965;50.660;13.226;2022-09-09T05:03:07;12.00;99.90
27224;DHT22;14965;50.660;13.226;2022-09-09T05:05:34;12.10;99.90
27224;DHT22;14965;50.660;13.226;2022-09-09T05:08:04;12.20;99.90
27224;DHT22;14965;50.660;13.226;2022-09-09T05:10:31;12.30;99.90
27224;DHT22;14965;50.660;13.226;2022-09-09T05:12:56;12.40;99.90
27224;DHT22;14965;50.660;13.226;2022-09-09T05:15:22;12.50;99.90
27224;DHT22;14965;50.660;13.226;2022-09-09T05:17:48;12.50;99.90
27224;DHT22;14965;50.660;13.226;2022-09-09T05:20:16;12.60;99.90
27224;DHT22;14965;50.660;13.226;2022-09-09T05:22:41;12.70;99.90
27224;DHT22;14965;50.660;13.226;2022-09-09T05:25:08;12.70;99.90
27224;DHT22;14965;50.660;13.226;2022-09-09T05:27:34;12.80;99.90
27224;DHT22;14965;50.660;13.226;2022-09-09T05:30:00;12.80;99.90
27224;DHT22;14965;50.660;13.226;2022-09-09T05:32:26;12.90;99.90
27224;DHT22;14965;50.660;13.226;2022-09-09T05:34:52;12.90;99.90
27224;DHT22;14965;50.660;13.226;2022-09-09T05:37:19;13.00;99.90
27224;DHT22;14965;50.660;13.226;2022-09-09T05:39:44;13.10;99.90
27224;DHT22;14965;50.660;13.226;2022-09-09T05:42:10;13.20;99.90
27224;DHT22;14965;50.660;13.226;2022-09-09T05:44:36;13.30;99.90
27224;DHT22;14965;50.660;13.226;2022-09-09T05:47:03;13.40;99.90
27224;DHT22;14965;50.660;13.226;2022-09-09T05:49:29;13.50;99.90
27224;DHT22;14965;50.660;13.226;2022-09-09T05:51:54;13.60;99.90
27224;DHT22;14965;50.660;13.226;2022-09-09T05:54:22;13.70;99.90
27224;DHT22;14965;50.660;13.226;2022-09-09T05:56:51;13.90;99.90
27224;DHT22;14965;50.660;13.226;2022-09-09T05:59:16;14.00;99.90
27224;DHT22;14965;50.660;13.226;2022-09-09T06:01:42;14.10;99.90
27224;DHT22;14965;50.660;13.226;2022-09-09T06:04:08;14.20;99.90
27224;DHT22;14965;50.660;13.226;2022-09-09T06:06:35;14.30;99.90
27224;DHT22;14965;50.660;13.226;2022-09-09T06:09:05;14.30;99.90
27224;DHT22;14965;50.660;13.226;2022-09-09T06:11:34;14.30;99.90
27224;DHT22;14965;50.660;13.226;2022-09-09T06:14:00;14.30;99.90
27224;DHT22;14965;50.660;13.226;2022-09-09T06:16:27;14.30;99.90
27224;DHT22;14965;50.660;13.226;2022-09-09T06:18:55;14.40;99.90
27224;DHT22;14965;50.660;13.226;2022-09-09T06:21:23;14.40;99.90
27224;DHT22;14965;50.660;13.226;2022-09-09T06:23:51;14.40;99.90
27224;DHT22;14965;50.660;13.226;2022-09-09T06:26:19;14.50;99.90
27224;DHT22;14965;50.660;13.226;2022-09-09T06:28:49;14.60;99.90
27224;DHT22;14965;50.660;13.226;2022-09-09T06:31:17;14.60;99.90
27224;DHT22;14965;50.660;13.226;2022-09-09T06:33:44;14.70;99.90
27224;DHT22;14965;50.660;13.226;2022-09-09T06:36:11;14.80;99.90
27224;DHT22;14965;50.660;13.226;2022-09-09T06:38:38;14.80;99.90
27224;DHT22;14965;50.660;13.226;2022-09-09T06:41:04;14.90;99.90
27224;DHT22;14965;50.660;13.226;2022-09-09T06:43:30;15.00;99.90
27224;DHT22;14965;50.660;13.226;2022-09-09T06:45:59;15.10;99.90
27224;DHT22;14965;50.660;13.226;2022-09-09T06:48:27;15.10;99.90
27224;DHT22;14965;50.660;13.226;2022-09-09T06:51:00;15.10;99.90
27224;DHT22;14965;50.660;13.226;2022-09-09T06:53:27;15.30;99.90
27224;DHT22;14965;50.660;13.226;2022-09-09T06:55:53;15.30;99.90
27224;DHT22;14965;50.660;13.226;2022-09-09T06:58:18;15.40;99.90
27224;DHT22;14965;50.660;13.226;2022-09-09T07:00:44;15.60;99.90
27224;DHT22;14965;50.660;13.226;2022-09-09T07:03:11;15.60;99.90
27224;DHT22;14965;50.660;13.226;2022-09-09T07:05:37;15.70;99.90
27224;DHT22;14965;50.660;13.226;2022-09-09T07:08:03;15.80;99.90
27224;DHT22;14965;50.660;13.226;2022-09-09T07:10:29;15.90;99.90
27224;DHT22;14965;50.660;13.226;2022-09-09T07:12:55;15.90;99.90
27224;DHT22;14965;50.660;13.226;2022-09-09T07:15:21;16.00;99.90
27224;DHT22;14965;50.660;13.226;2022-09-09T07:17:47;16.10;99.90
27224;DHT22;14965;50.660;13.226;2022-09-09T07:20:14;16.20;99.90
27224;DHT22;14965;50.660;13.226;2022-09-09T07:22:41;16.20;99.90
27224;DHT22;14965;50.660;13.226;2022-09-09T07:25:07;16.20;99.90
27224;DHT22;14965;50.660;13.226;2022-09-09T07:27:34;16.30;99.90
27224;DHT22;14965;50.660;13.226;2022-09-09T07:30:00;16.40;99.90
27224;DHT22;14965;50.660;13.226;2022-09-09T07:32:26;16.50;99.90
27224;DHT22;14965;50.660;13.226;2022-09-09T07:34:52;16.70;99.90
27224;DHT22;14965;50.660;13.226;2022-09-09T07:37:19;16.90;99.90
27224;DHT22;14965;50.660;13.226;2022-09-09T07:39:45;17.00;99.90
27224;DHT22;14965;50.660;13.226;2022-09-09T07:42:11;17.20;99.90
27224;DHT22;14965;50.660;13.226;2022-09-09T07:44:37;17.40;99.90
27224;DHT22;14965;50.660;13.226;2022-09-09T07:47:03;17.50;99.90
27224;DHT22;14965;50.660;13.226;2022-09-09T07:49:29;17.70;99.90
27224;DHT22;14965;50.660;13.226;2022-09-09T07:51:55;17.80;99.90
27224;DHT22;14965;50.660;13.226;2022-09-09T07:54:22;17.80;99.90
27224;DHT22;14965;50.660;13.226;2022-09-09T07:56:48;17.90;99.90
27224;DHT22;14965;50.660;13.226;2022-09-09T07:59:13;17.90;99.90
27224;DHT22;14965;50.660;13.226;2022-09-09T08:01:41;17.90;99.90
27224;DHT22;14965;50.660;13.226;2022-09-09T08:04:09;17.80;99.90
27224;DHT22;14965;50.660;13.226;2022-09-09T08:06:39;17.60;99.90
27224;DHT22;14965;50.660;13.226;2022-09-09T08:09:06;17.50;99.90
27224;DHT22;14965;50.660;13.226;2022-09-09T08:11:35;17.40;99.90
27224;DHT22;14965;50.660;13.226;2022-09-09T08:14:02;17.30;99.90
27224;DHT22;14965;50.660;13.226;2022-09-09T08:16:30;17.20;99.90
27224;DHT22;14965;50.660;13.226;2022-09-09T08:18:58;17.10;99.90
27224;DHT22;14965;50.660;13.226;2022-09-09T08:21:26;17.10;99.90
27224;DHT22;14965;50.660;13.226;2022-09-09T08:23:57;17.10;99.90
27224;DHT22;14965;50.660;13.226;2022-09-09T08:26:26;17.10;99.90
27224;DHT22;14965;50.660;13.226;2022-09-09T08:28:56;17.10;99.90
27224;DHT22;14965;50.660;13.226;2022-09-09T08:31:26;17.10;99.90
27224;DHT22;14965;50.660;13.226;2022-09-09T08:33:54;17.10;99.90
27224;DHT22;14965;50.660;13.226;2022-09-09T08:36:22;17.20;99.90
27224;DHT22;14965;50.660;13.226;2022-09-09T08:38:50;17.30;99.90
27224;DHT22;14965;50.660;13.226;2022-09-09T08:44:55;17.60;99.90
27224;DHT22;14965;50.660;13.226;2022-09-09T08:47:52;17.70;99.90
27224;DHT22;14965;50.660;13.226;2022-09-09T08:50:27;17.80;99.90
27224;DHT22;14965;50.660;13.226;2022-09-09T08:52:56;17.80;99.90
27224;DHT22;14965;50.660;13.226;2022-09-09T08:55:33;17.90;99.90
27224;DHT22;14965;50.660;13.226;2022-09-09T08:58:09;18.00;99.90
27224;DHT22;14965;50.660;13.226;2022-09-09T09:00:47;18.10;99.90
27224;DHT22;14965;50.660;13.226;2022-09-09T09:03:40;18.30;99.90
27224;DHT22;14965;50.660;13.226;2022-09-09T09:06:23;18.30;99.90
27224;DHT22;14965;50.660;13.226;2022-09-09T09:09:01;18.20;99.90
27224;DHT22;14965;50.660;13.226;2022-09-09T09:11:36;18.10;99.90
27224;DHT22;14965;50.660;13.226;2022-09-09T09:14:09;18.20;99.90
27224;DHT22;14965;50.660;13.226;2022-09-09T09:16:47;18.40;99.90
27224;DHT22;14965;50.660;13.226;2022-09-09T09:19:17;18.60;99.90
27224;DHT22;14965;50.660;13.226;2022-09-09T09:21:45;18.80;99.90
27224;DHT22;14965;50.660;13.226;2022-09-09T09:24:19;19.00;99.90
27224;DHT22;14965;50.660;13.226;2022-09-09T09:26:46;19.00;99.90
27224;DHT22;14965;50.660;13.226;2022-09-09T09:29:14;19.00;99.90
27224;DHT22;14965;50.660;13.226;2022-09-09T09:31:44;18.90;99.90
27224;DHT22;14965;50.660;13.226;2022-09-09T09:34:12;18.90;99.90
27224;DHT22;14965;50.660;13.226;2022-09-09T09:36:42;19.00;99.90
27224;DHT22;14965;50.660;13.226;2022-09-09T09:39:10;19.20;99.90
27224;DHT22;14965;50.660;13.226;2022-09-09T09:41:38;19.30;99.90
27224;DHT22;14965;50.660;13.226;2022-09-09T09:44:22;19.20;99.90
27224;DHT22;14965;50.660;13.226;2022-09-09T09:46:51;19.20;99.90
27224;DHT22;14965;50.660;13.226;2022-09-09T09:49:18;19.40;99.90
27224;DHT22;14965;50.660;13.226;2022-09-09T09:51:44;19.70;99.90
27224;DHT22;14965;50.660;13.226;2022-09-09T09:54:17;19.90;99.90
27224;DHT22;14965;50.660;13.226;2022-09-09T09:56:53;20.00;99.90
27224;DHT22;14965;50.660;13.226;2022-09-09T09:59:21;19.90;99.90
27224;DHT22;14965;50.660;13.226;2022-09-09T10:02:14;19.90;99.90
27224;DHT22;14965;50.660;13.226;2022-09-09T10:04:42;20.10;99.90
27224;DHT22;14965;50.660;13.226;2022-09-09T10:07:12;20.30;99.90
27224;DHT22;14965;50.660;13.226;2022-09-09T10:09:39;20.50;99.90
27224;DHT22;14965;50.660;13.226;2022-09-09T10:12:12;20.60;99.90
27224;DHT22;14965;50.660;13.226;2022-09-09T10:14:49;20.50;99.90
27224;DHT22;14965;50.660;13.226;2022-09-09T10:17:32;20.30;99.90
27224;DHT22;14965;50.660;13.226;2022-09-09T10:20:23;19.90;99.90
27224;DHT22;14965;50.660;13.226;2022-09-09T10:23:05;19.80;99.90
27224;DHT22;14965;50.660;13.226;2022-09-09T10:25:57;19.70;99.90
27224;DHT22;14965;50.660;13.226;2022-09-09T10:28:41;19.80;99.90
27224;DHT22;14965;50.660;13.226;2022-09-09T10:31:24;20.00;99.90
27224;DHT22;14965;50.660;13.226;2022-09-09T10:34:06;20.00;99.90
27224;DHT22;14965;50.660;13.226;2022-09-09T10:36:47;20.00;99.90
27224;DHT22;14965;50.660;13.226;2022-09-09T10:39:25;20.20;99.90
27224;DHT22;14965;50.660;13.226;2022-09-09T10:42:04;20.40;99.90
27224;DHT22;14965;50.660;13.226;2022-09-09T10:44:47;20.50;99.90
27224;DHT22;14965;50.660;13.226;2022-09-09T10:47:32;20.40;99.90
27224;DHT22;14965;50.660;13.226;2022-09-09T10:50:31;20.10;99.90
27224;DHT22;14965;50.660;13.226;2022-09-09T10:53:13;20.10;99.90
27224;DHT22;14965;50.660;13.226;2022-09-09T10:55:51;20.20;99.90
27224;DHT22;14965;50.660;13.226;2022-09-09T10:58:23;20.50;99.90
27224;DHT22;14965;50.660;13.226;2022-09-09T11:00:56;20.70;99.90
27224;DHT22;14965;50.660;13.226;2022-09-09T11:03:28;20.90;99.90
27224;DHT22;14965;50.660;13.226;2022-09-09T11:05:59;20.90;99.90
27224;DHT22;14965;50.660;13.226;2022-09-09T11:08:31;21.00;99.90
27224;DHT22;14965;50.660;13.226;2022-09-09T11:11:03;20.90;99.90
27224;DHT22;14965;50.660;13.226;2022-09-09T11:13:38;20.90;99.90
27224;DHT22;14965;50.660;13.226;2022-09-09T11:16:19;20.90;99.90
27224;DHT22;14965;50.660;13.226;2022-09-09T11:18:57;21.00;99.90
27224;DHT22;14965;50.660;13.226;2022-09-09T11:21:31;21.20;99.90
27224;DHT22;14965;50.660;13.226;2022-09-09T11:24:04;21.40;99.90
27224;DHT22;14965;50.660;13.226;2022-09-09T11:26:39;21.60;99.90
27224;DHT22;14965;50.660;13.226;2022-09-09T11:29:24;21.40;99.90
27224;DHT22;14965;50.660;13.226;2022-09-09T11:32:36;21.50;99.90
27224;DHT22;14965;50.660;13.226;2022-09-09T11:35:26;21.60;99.90
27224;DHT22;14965;50.660;13.226;2022-09-09T11:38:15;21.40;99.90
27224;DHT22;14965;50.660;13.226;2022-09-09T11:40:45;21.20;99.90
27224;DHT22;14965;50.660;13.226;2022-09-09T11:43:13;21.30;99.90
27224;DHT22;14965;50.660;13.226;2022-09-09T11:45:51;21.30;99.90
27224;DHT22;14965;50.660;13.226;2022-09-09T11:48:25;21.40;99.90
27224;DHT22;14965;50.660;13.226;2022-09-09T11:50:58;21.50;99.90
27224;DHT22;14965;50.660;13.226;2022-09-09T11:53:27;21.50;99.90
27224;DHT22;14965;50.660;13.226;2022-09-09T11:56:05;21.60;99.90
27224;DHT22;14965;50.660;13.226;2022-09-09T11:58:39;21.70;99.90
27224;DHT22;14965;50.660;13.226;2022-09-09T12:04:06;21.50;99.90
27224;DHT22;14965;50.660;13.226;2022-09-09T12:06:49;21.40;99.90
27224;DHT22;14965;50.660;13.226;2022-09-09T12:09:23;21.20;99.90
27224;DHT22;14965;50.660;13.226;2022-09-09T12:12:05;21.00;99.90
27224;DHT22;14965;50.660;13.226;2022-09-09T12:14:37;21.00;99.90
27224;DHT22;14965;50.660;13.226;2022-09-09T12:17:10;20.90;99.90
27224;DHT22;14965;50.660;13.226;2022-09-09T12:19:44;21.00;99.90
27224;DHT22;14965;50.660;13.226;2022-09-09T12:22:16;21.30;99.90
27224;DHT22;14965;50.660;13.226;2022-09-09T12:24:56;21.30;99.90
27224;DHT22;14965;50.660;13.226;2022-09-09T12:27:39;21.40;99.90
27224;DHT22;14965;50.660;13.226;2022-09-09T12:30:12;21.60;99.90
27224;DHT22;14965;50.660;13.226;2022-09-09T12:32:41;21.50;99.90
27224;DHT22;14965;50.660;13.226;2022-09-09T12:35:11;21.50;99.90
27224;DHT22;14965;50.660;13.226;2022-09-09T12:37:44;21.40;99.90
27224;DHT22;14965;50.660;13.226;2022-09-09T12:40:22;21.40;99.90
27224;DHT22;14965;50.660;13.226;2022-09-09T12:42:49;21.40;99.90
27224;DHT22;14965;50.660;13.226;2022-09-09T12:45:17;21.40;99.90
27224;DHT22;14965;50.660;13.226;2022-09-09T12:47:48;21.40;99.90
27224;DHT22;14965;50.660;13.226;2022-09-09T12:50:22;21.50;99.90
27224;DHT22;14965;50.660;13.226;2022-09-09T12:52:51;21.40;99.90
27224;DHT22;14965;50.660;13.226;2022-09-09T12:55:23;21.40;99.90
27224;DHT22;14965;50.660;13.226;2022-09-09T12:57:53;21.30;99.90
27224;DHT22;14965;50.660;13.226;2022-09-09T13:00:21;21.10;99.90
27224;DHT22;14965;50.660;13.226;2022-09-09T13:02:50;21.10;99.90
27224;DHT22;14965;50.660;13.226;2022-09-09T13:05:21;21.10;99.90
27224;DHT22;14965;50.660;13.226;2022-09-09T13:07:48;21.10;99.90
27224;DHT22;14965;50.660;13.226;2022-09-09T13:10:23;21.00;99.90
27224;DHT22;14965;50.660;13.226;2022-09-09T13:12:52;21.00;99.90
27224;DHT22;14965;50.660;13.226;2022-09-09T13:15:22;21.10;99.90
27224;DHT22;14965;50.660;13.226;2022-09-09T13:17:54;21.00;99.90
27224;DHT22;14965;50.660;13.226;2022-09-09T13:20:23;20.90;99.90
27224;DHT22;14965;50.660;13.226;2022-09-09T13:22:50;20.80;99.90
27224;DHT22;14965;50.660;13.226;2022-09-09T13:25:20;20.80;99.90
27224;DHT22;14965;50.660;13.226;2022-09-09T13:27:55;20.70;99.90
27224;DHT22;14965;50.660;13.226;2022-09-09T13:30:28;20.70;99.90
27224;DHT22;14965;50.660;13.226;2022-09-09T13:33:05;20.60;99.90
27224;DHT22;14965;50.660;13.226;2022-09-09T13:35:46;20.40;99.90
27224;DHT22;14965;50.660;13.226;2022-09-09T13:38:15;20.20;99.90
27224;DHT22;14965;50.660;13.226;2022-09-09T13:40:52;20.10;99.90
27224;DHT22;14965;50.660;13.226;2022-09-09T13:43:21;20.00;99.90
27224;DHT22;14965;50.660;13.226;2022-09-09T13:45:54;19.90;99.90
27224;DHT22;14965;50.660;13.226;2022-09-09T13:48:21;19.90;99.90
27224;DHT22;14965;50.660;13.226;2022-09-09T13:50:54;19.90;99.90
27224;DHT22;14965;50.660;13.226;2022-09-09T13:53:28;19.90;99.90
27224;DHT22;14965;50.660;13.226;2022-09-09T13:55:55;19.90;99.90
27224;DHT22;14965;50.660;13.226;2022-09-09T13:58:21;19.90;99.90
27224;DHT22;14965;50.660;13.226;2022-09-09T14:00:47;19.90;99.90
27224;DHT22;14965;50.660;13.226;2022-09-09T14:03:13;19.90;99.90
27224;DHT22;14965;50.660;13.226;2022-09-09T14:05:39;20.10;99.90
27224;DHT22;14965;50.660;13.226;2022-09-09T14:08:06;20.30;99.90
27224;DHT22;14965;50.660;13.226;2022-09-09T14:10:34;20.40;99.90
27224;DHT22;14965;50.660;13.226;2022-09-09T14:13:01;20.40;99.90
27224;DHT22;14965;50.660;13.226;2022-09-09T14:15:27;20.40;99.90
27224;DHT22;14965;50.660;13.226;2022-09-09T14:17:52;20.40;99.90
27224;DHT22;14965;50.660;13.226;2022-09-09T14:20:18;20.30;99.90
27224;DHT22;14965;50.660;13.226;2022-09-09T14:22:44;20.20;99.90
27224;DHT22;14965;50.660;13.226;2022-09-09T14:25:10;20.10;99.90
27224;DHT22;14965;50.660;13.226;2022-09-09T14:27:36;20.00;99.90
27224;DHT22;14965;50.660;13.226;2022-09-09T14:30:04;19.90;99.90
27224;DHT22;14965;50.660;13.226;2022-09-09T14:32:31;19.80;99.90
27224;DHT22;14965;50.660;13.226;2022-09-09T14:34:57;19.60;99.90
27224;DHT22;14965;50.660;13.226;2022-09-09T14:37:22;19.50;99.90
27224;DHT22;14965;50.660;13.226;2022-09-09T14:39:48;19.40;99.90
27224;DHT22;14965;50.660;13.226;2022-09-09T14:42:14;19.30;99.90
27224;DHT22;14965;50.660;13.226;2022-09-09T14:44:40;19.20;99.90
27224;DHT22;14965;50.660;13.226;2022-09-09T14:47:08;19.10;99.90
27224;DHT22;14965;50.660;13.226;2022-09-09T14:49:34;19.10;99.90
27224;DHT22;14965;50.660;13.226;2022-09-09T14:52:00;19.10;99.90
27224;DHT22;14965;50.660;13.226;2022-09-09T14:54:27;19.00;99.90
27224;DHT22;14965;50.660;13.226;2022-09-09T14:56:52;18.90;99.90
27224;DHT22;14965;50.660;13.226;2022-09-09T14:59:18;18.90;99.90
27224;DHT22;14965;50.660;13.226;2022-09-09T15:01:44;18.80;99.90
27224;DHT22;14965;50.660;13.226;2022-09-09T15:04:13;18.60;99.90
27224;DHT22;14965;50.660;13.226;2022-09-09T15:06:38;18.60;99.90
27224;DHT22;14965;50.660;13.226;2022-09-09T15:09:05;18.50;99.90
27224;DHT22;14965;50.660;13.226;2022-09-09T15:11:34;18.50;99.90
27224;DHT22;14965;50.660;13.226;2022-09-09T15:14:02;18.40;99.90
27224;DHT22;14965;50.660;13.226;2022-09-09T15:16:28;18.40;99.90
27224;DHT22;14965;50.660;13.226;2022-09-09T15:18:55;18.40;99.90
27224;DHT22;14965;50.660;13.226;2022-09-09T15:21:26;18.30;99.90
27224;DHT22;14965;50.660;13.226;2022-09-09T15:23:54;18.30;99.90
27224;DHT22;14965;50.660;13.226;2022-09-09T15:26:21;18.30;99.90
27224;DHT22;14965;50.660;13.226;2022-09-09T15:28:48;18.30;99.90
27224;DHT22;14965;50.660;13.226;2022-09-09T15:31:16;18.30;99.90
27224;DHT22;14965;50.660;13.226;2022-09-09T15:33:47;18.20;99.90
27224;DHT22;14965;50.660;13.226;2022-09-09T15:36:15;18.20;99.90
27224;DHT22;14965;50.660;13.226;2022-09-09T15:38:43;18.10;99.90
27224;DHT22;14965;50.660;13.226;2022-09-09T15:41:09;18.10;99.90
27224;DHT22;14965;50.660;13.226;2022-09-09T15:43:35;18.10;99.90